sensor_id;sensor_type;location;lat;lon;timestamp;pressure;altitude;pressure_sealevel;temperature;humidity
4972;BME280;2501;51.214;6.768;2023-04-27T00:02:25;101677.09;;;6.90;62.86
4972;BME280;2501;51.214;6.768;2023-04-27T00:04:54;101681.09;;;6.57;63.73
4972;BME280;2501;51.214;6.768;2023-04-27T00:07:22;101677.19;;;6.46;64.35
4972;BME280;2501;51.214;6.768;2023-04-27T00:09:51;101681.91;;;6.80;64.00
4972;BME280;2501;51.214;6.768;2023-04-27T00:12:19;101681.19;;;6.84;63.45
4972;BME280;2501;51.214;6.768;2023-04-27T00:14:50;101681.09;;;6.81;63.62
4972;BME280;2501;51.214;6.768;2023-04-27T00:17:18;101679.06;;;6.72;63.96
4972;BME280;2501;51.214;6.768;2023-04-27T00:19:47;101683.50;;;6.76;64.01
4972;BME280;2501;51.214;6.768;2023-04-27T00:22:16;101680.22;;;6.56;64.25
4972;BME280;2501;51.214;6.768;2023-04-27T00:24:45;101685.16;;;6.73;64.40
4972;BME280;2501;51.214;6.768;2023-04-27T00:27:13;101688.75;;;6.52;64.87
4972;BME280;2501;51.214;6.768;2023-04-27T00:29:41;101676.31;;;6.69;64.86
4972;BME280;2501;51.214;6.768;2023-04-27T00:32:12;101688.53;;;6.70;64.99
4972;BME280;2501;51.214;6.768;2023-04-27T00:34:41;101689.75;;;6.80;64.68
4972;BME280;2501;51.214;6.768;2023-04-27T00:37:09;101695.66;;;6.76;64.87
4972;BME280;2501;51.214;6.768;2023-04-27T00:39:38;101695.84;;;6.56;65.36
4972;BME280;2501;51.214;6.768;2023-04-27T00:42:06;101701.16;;;6.59;65.01
4972;BME280;2501;51.214;6.768;2023-04-27T00:44:38;101698.47;;;6.34;65.57
4972;BME280;2501;51.214;6.768;2023-04-27T00:47:07;101691.25;;;6.27;66.06
4972;BME280;2501;51.214;6.768;2023-04-27T00:49:40;101684.06;;;6.44;65.37
4972;BME280;2501;51.214;6.768;2023-04-27T00:52:09;101675.84;;;6.33;65.96
4972;BME280;2501;51.214;6.768;2023-04-27T00:54:37;101682.91;;;6.59;65.50
4972;BME280;2501;51.214;6.768;2023-04-27T00:57:06;101682.13;;;6.62;65.27
4972;BME280;2501;51.214;6.768;2023-04-27T00:59:35;101683.66;;;6.55;65.91
4972;BME280;2501;51.214;6.768;2023-04-27T01:02:04;101680.28;;;6.58;66.29
4972;BME280;2501;51.214;6.768;2023-04-27T01:04:34;101690.00;;;6.63;66.26
4972;BME280;2501;51.214;6.768;2023-04-27T01:07:05;101688.44;;;6.45;66.43
4972;BME280;2501;51.214;6.768;2023-04-27T01:09:33;101682.63;;;6.52;66.59
4972;BME280;2501;51.214;6.768;2023-04-27T01:12:01;101680.88;;;6.51;66.87
4972;BME280;2501;51.214;6.768;2023-04-27T01:14:30;101691.44;;;6.32;67.38
4972;BME280;2501;51.214;6.768;2023-04-27T01:16:59;101687.28;;;6.37;67.07
4972;BME280;2501;51.214;6.768;2023-04-27T01:19:27;101688.25;;;6.16;67.26
4972;BME280;2501;51.214;6.768;2023-04-27T01:21:55;101689.19;;;6.18;67.79
4972;BME280;2501;51.214;6.768;2023-04-27T01:24:26;101686.97;;;6.29;67.58
4972;BME280;2501;51.214;6.768;2023-04-27T01:26:55;101686.69;;;5.99;67.61
4972;BME280;2501;51.214;6.768;2023-04-27T01:29:23;101684.44;;;6.08;67.74
4972;BME280;2501;51.214;6.768;2023-04-27T01:31:52;101685.50;;;6.13;67.65
4972;BME280;2501;51.214;6.768;2023-04-27T01:34:20;101687.03;;;6.08;67.62
4972;BME280;2501;51.214;6.768;2023-04-27T01:36:49;101688.91;;;5.90;68.30
4972;BME280;2501;51.214;6.768;2023-04-27T01:39:17;101688.53;;;5.81;68.86
4972;BME280;2501;51.214;6.768;2023-04-27T01:41:48;101687.28;;;5.92;68.93
4972;BME280;2501;51.214;6.768;2023-04-27T01:44:17;101695.41;;;6.00;68.56
4972;BME280;2501;51.214;6.768;2023-04-27T01:46:47;101694.38;;;5.96;68.62
4972;BME280;2501;51.214;6.768;2023-04-27T01:49:15;101701.38;;;5.97;68.49
4972;BME280;2501;51.214;6.768;2023-04-27T01:51:44;101706.19;;;5.88;69.01
4972;BME280;2501;51.214;6.768;2023-04-27T01:54:12;101709.63;;;5.66;69.01
4972;BME280;2501;51.214;6.768;2023-04-27T01:56:40;101712.59;;;5.75;69.28
4972;BME280;2501;51.214;6.768;2023-04-27T01:59:11;101710.75;;;5.73;69.41
4972;BME280;2501;51.214;6.768;2023-04-27T02:01:40;101709.28;;;5.79;68.97
4972;BME280;2501;51.214;6.768;2023-04-27T02:04:08;101712.53;;;5.74;69.28
4972;BME280;2501;51.214;6.768;2023-04-27T02:06:37;101717.63;;;5.71;69.44
4972;BME280;2501;51.214;6.768;2023-04-27T02:09:05;101718.06;;;5.60;69.83
4972;BME280;2501;51.214;6.768;2023-04-27T02:11:34;101714.03;;;5.67;70.26
4972;BME280;2501;51.214;6.768;2023-04-27T02:14:02;101720.19;;;5.48;70.70
4972;BME280;2501;51.214;6.768;2023-04-27T02:16:34;101718.94;;;5.40;71.27
4972;BME280;2501;51.214;6.768;2023-04-27T02:19:02;101714.00;;;5.46;71.53
4972;BME280;2501;51.214;6.768;2023-04-27T02:21:30;101707.91;;;5.46;71.09
4972;BME280;2501;51.214;6.768;2023-04-27T02:23:59;101711.97;;;5.39;71.48
4972;BME280;2501;51.214;6.768;2023-04-27T02:26:27;101720.47;;;5.56;71.22
4972;BME280;2501;51.214;6.768;2023-04-27T02:28:56;101720.56;;;5.37;71.65
4972;BME280;2501;51.214;6.768;2023-04-27T02:31:25;101714.16;;;5.49;71.91
4972;BME280;2501;51.214;6.768;2023-04-27T02:33:56;101704.56;;;5.48;71.72
4972;BME280;2501;51.214;6.768;2023-04-27T02:36:25;101713.69;;;5.18;72.48
4972;BME280;2501;51.214;6.768;2023-04-27T02:38:54;101715.59;;;5.43;72.46
4972;BME280;2501;51.214;6.768;2023-04-27T02:41:22;101715.09;;;5.31;72.13
4972;BME280;2501;51.214;6.768;2023-04-27T02:43:52;101709.00;;;5.30;72.86
4972;BME280;2501;51.214;6.768;2023-04-27T02:46:20;101713.16;;;5.27;73.46
4972;BME280;2501;51.214;6.768;2023-04-27T02:48:49;101701.81;;;5.24;73.12
4972;BME280;2501;51.214;6.768;2023-04-27T02:51:20;101696.81;;;5.29;73.28
4972;BME280;2501;51.214;6.768;2023-04-27T02:53:48;101705.47;;;5.09;73.85
4972;BME280;2501;51.214;6.768;2023-04-27T02:56:16;101701.59;;;5.20;74.10
4972;BME280;2501;51.214;6.768;2023-04-27T02:58:45;101690.50;;;5.24;73.50
4972;BME280;2501;51.214;6.768;2023-04-27T03:01:14;101691.34;;;5.23;73.72
4972;BME280;2501;51.214;6.768;2023-04-27T03:03:44;101690.38;;;5.21;73.96
4972;BME280;2501;51.214;6.768;2023-04-27T03:06:13;101681.44;;;5.14;74.32
4972;BME280;2501;51.214;6.768;2023-04-27T03:08:45;101674.78;;;5.21;74.25
4972;BME280;2501;51.214;6.768;2023-04-27T03:11:13;101676.44;;;5.19;74.36
4972;BME280;2501;51.214;6.768;2023-04-27T03:13:41;101684.88;;;5.13;74.78
4972;BME280;2501;51.214;6.768;2023-04-27T03:16:10;101681.38;;;5.13;75.02
4972;BME280;2501;51.214;6.768;2023-04-27T03:18:39;101681.53;;;5.16;74.94
4972;BME280;2501;51.214;6.768;2023-04-27T03:21:07;101682.47;;;5.18;74.98
4972;BME280;2501;51.214;6.768;2023-04-27T03:23:36;101692.81;;;5.16;75.30
4972;BME280;2501;51.214;6.768;2023-04-27T03:26:08;101686.97;;;5.01;75.52
4972;BME280;2501;51.214;6.768;2023-04-27T03:28:37;101688.94;;;4.87;75.94
4972;BME280;2501;51.214;6.768;2023-04-27T03:31:06;101695.56;;;5.00;76.08
4972;BME280;2501;51.214;6.768;2023-04-27T03:33:35;101695.38;;;4.96;76.32
4972;BME280;2501;51.214;6.768;2023-04-27T03:36:05;101691.94;;;4.97;76.41
4972;BME280;2501;51.214;6.768;2023-04-27T03:38:35;101692.81;;;5.16;76.24
4972;BME280;2501;51.214;6.768;2023-04-27T03:41:04;101685.75;;;5.14;75.86
4972;BME280;2501;51.214;6.768;2023-04-27T03:43:35;101692.97;;;5.00;75.95
4972;BME280;2501;51.214;6.768;2023-04-27T03:46:03;101688.91;;;5.07;76.05
4972;BME280;2501;51.214;6.768;2023-04-27T03:48:31;101684.66;;;5.09;76.24
4972;BME280;2501;51.214;6.768;2023-04-27T03:51:00;101692.81;;;5.16;75.99
4972;BME280;2501;51.214;6.768;2023-04-27T03:53:29;101692.53;;;5.10;76.12
4972;BME280;2501;51.214;6.768;2023-04-27T03:55:57;101699.25;;;5.05;76.56
4972;BME280;2501;51.214;6.768;2023-04-27T03:58:26;101704.44;;;5.05;76.78
4972;BME280;2501;51.214;6.768;2023-04-27T04:00:57;101697.91;;;4.94;76.77
4972;BME280;2501;51.214;6.768;2023-04-27T04:03:26;101707.75;;;5.01;76.75
4972;BME280;2501;51.214;6.768;2023-04-27T04:05:54;101712.22;;;4.84;76.86
4972;BME280;2501;51.214;6.768;2023-04-27T04:08:22;101720.34;;;4.92;77.15
4972;BME280;2501;51.214;6.768;2023-04-27T04:10:51;101720.63;;;4.98;77.10
4972;BME280;2501;51.214;6.768;2023-04-27T04:13:19;101716.63;;;5.06;77.01
4972;BME280;2501;51.214;6.768;2023-04-27T04:15:47;101712.09;;;5.02;77.04
4972;BME280;2501;51.214;6.768;2023-04-27T04:18:18;101719.72;;;4.98;77.17
4972;BME280;2501;51.214;6.768;2023-04-27T04:20:47;101718.91;;;4.99;77.25
4972;BME280;2501;51.214;6.768;2023-04-27T04:23:15;101716.25;;;4.97;77.19
4972;BME280;2501;51.214;6.768;2023-04-27T04:25:44;101723.69;;;4.89;77.48
4972;BME280;2501;51.214;6.768;2023-04-27T04:28:13;101717.13;;;4.98;77.63
4972;BME280;2501;51.214;6.768;2023-04-27T04:30:41;101715.59;;;5.03;77.45
4972;BME280;2501;51.214;6.768;2023-04-27T04:33:10;101719.06;;;4.82;77.25
4972;BME280;2501;51.214;6.768;2023-04-27T04:35:41;101721.44;;;4.97;77.28
4972;BME280;2501;51.214;6.768;2023-04-27T04:38:10;101726.44;;;4.93;77.29
4972;BME280;2501;51.214;6.768;2023-04-27T04:40:39;101725.06;;;5.01;76.76
4972;BME280;2501;51.214;6.768;2023-04-27T04:43:08;101724.50;;;5.08;76.83
4972;BME280;2501;51.214;6.768;2023-04-27T04:45:36;101730.50;;;5.07;76.53
4972;BME280;2501;51.214;6.768;2023-04-27T04:48:05;101732.16;;;5.05;76.53
4972;BME280;2501;51.214;6.768;2023-04-27T04:50:34;101733.25;;;5.10;76.30
4972;BME280;2501;51.214;6.768;2023-04-27T04:53:05;101728.13;;;5.11;76.19
4972;BME280;2501;51.214;6.768;2023-04-27T04:55:34;101728.81;;;4.88;76.93
4972;BME280;2501;51.214;6.768;2023-04-27T04:58:02;101730.38;;;5.04;77.21
4972;BME280;2501;51.214;6.768;2023-04-27T05:00:31;101730.50;;;5.07;77.24
4972;BME280;2501;51.214;6.768;2023-04-27T05:02:59;101726.84;;;5.22;76.57
4972;BME280;2501;51.214;6.768;2023-04-27T05:05:28;101729.94;;;5.33;76.23
4972;BME280;2501;51.214;6.768;2023-04-27T05:07:56;101737.34;;;5.24;75.90
4972;BME280;2501;51.214;6.768;2023-04-27T05:10:27;101743.69;;;5.31;75.41
4972;BME280;2501;51.214;6.768;2023-04-27T05:12:56;101739.94;;;5.24;75.52
4972;BME280;2501;51.214;6.768;2023-04-27T05:15:24;101747.94;;;5.29;75.35
4972;BME280;2501;51.214;6.768;2023-04-27T05:17:52;101748.16;;;5.14;75.60
4972;BME280;2501;51.214;6.768;2023-04-27T05:20:21;101747.44;;;5.37;75.42
4972;BME280;2501;51.214;6.768;2023-04-27T05:22:49;101751.81;;;5.38;75.16
4972;BME280;2501;51.214;6.768;2023-04-27T05:25:18;101751.81;;;5.38;74.87
4972;BME280;2501;51.214;6.768;2023-04-27T05:27:49;101741.94;;;5.50;74.51
4972;BME280;2501;51.214;6.768;2023-04-27T05:30:17;101747.91;;;5.48;74.48
4972;BME280;2501;51.214;6.768;2023-04-27T05:32:46;101744.56;;;5.50;73.97
4972;BME280;2501;51.214;6.768;2023-04-27T05:35:15;101757.09;;;5.60;73.97
4972;BME280;2501;51.214;6.768;2023-04-27T05:37:43;101755.41;;;5.61;73.76
4972;BME280;2501;51.214;6.768;2023-04-27T05:40:13;101757.09;;;5.60;73.34
4972;BME280;2501;51.214;6.768;2023-04-27T05:42:42;101756.63;;;5.69;73.32
4972;BME280;2501;51.214;6.768;2023-04-27T05:45:16;101761.63;;;5.65;73.35
4972;BME280;2501;51.214;6.768;2023-04-27T05:47:44;101764.03;;;5.81;73.19
4972;BME280;2501;51.214;6.768;2023-04-27T05:50:13;101762.19;;;5.78;72.92
4972;BME280;2501;51.214;6.768;2023-04-27T05:52:41;101761.91;;;5.72;72.97
4972;BME280;2501;51.214;6.768;2023-04-27T05:55:10;101767.03;;;5.90;72.78
4972;BME280;2501;51.214;6.768;2023-04-27T05:57:39;101759.59;;;5.99;72.20
4972;BME280;2501;51.214;6.768;2023-04-27T06:00:09;101768.50;;;6.04;71.89
4972;BME280;2501;51.214;6.768;2023-04-27T06:02:40;101769.13;;;5.99;71.50
4972;BME280;2501;51.214;6.768;2023-04-27T06:05:09;101771.72;;;6.19;71.15
4972;BME280;2501;51.214;6.768;2023-04-27T06:07:37;101776.38;;;6.28;70.72
4972;BME280;2501;51.214;6.768;2023-04-27T06:10:09;101761.97;;;6.36;70.63
4972;BME280;2501;51.214;6.768;2023-04-27T06:12:37;101774.09;;;6.36;70.07
4972;BME280;2501;51.214;6.768;2023-04-27T06:15:07;101772.22;;;6.54;69.65
4972;BME280;2501;51.214;6.768;2023-04-27T06:17:35;101769.75;;;6.58;68.92
4972;BME280;2501;51.214;6.768;2023-04-27T06:20:07;101766.81;;;6.49;68.90
4972;BME280;2501;51.214;6.768;2023-04-27T06:22:36;101775.09;;;6.61;68.88
4972;BME280;2501;51.214;6.768;2023-04-27T06:25:05;101776.94;;;6.64;68.51
4972;BME280;2501;51.214;6.768;2023-04-27T06:27:34;101766.25;;;6.80;68.30
4972;BME280;2501;51.214;6.768;2023-04-27T06:30:03;101763.53;;;7.01;67.88
4972;BME280;2501;51.214;6.768;2023-04-27T06:32:32;101763.56;;;6.79;68.46
4972;BME280;2501;51.214;6.768;2023-04-27T06:35:00;101759.38;;;7.06;67.65
4972;BME280;2501;51.214;6.768;2023-04-27T06:37:31;101763.31;;;6.95;67.60
4972;BME280;2501;51.214;6.768;2023-04-27T06:40:00;101766.03;;;6.98;67.27
4972;BME280;2501;51.214;6.768;2023-04-27T06:42:29;101766.81;;;6.95;67.34
4972;BME280;2501;51.214;6.768;2023-04-27T06:44:57;101766.81;;;6.95;67.10
4972;BME280;2501;51.214;6.768;2023-04-27T06:47:25;101771.03;;;7.16;66.69
4972;BME280;2501;51.214;6.768;2023-04-27T06:49:54;101771.41;;;7.03;67.08
4972;BME280;2501;51.214;6.768;2023-04-27T06:52:23;101769.72;;;7.27;66.44
4972;BME280;2501;51.214;6.768;2023-04-27T06:54:54;101773.75;;;7.19;65.98
4972;BME280;2501;51.214;6.768;2023-04-27T06:57:22;101779.50;;;7.34;65.68
4972;BME280;2501;51.214;6.768;2023-04-27T06:59:51;101764.25;;;7.46;65.01
4972;BME280;2501;51.214;6.768;2023-04-27T07:02:19;101764.06;;;7.65;64.29
4972;BME280;2501;51.214;6.768;2023-04-27T07:04:48;101763.72;;;7.82;63.52
4972;BME280;2501;51.214;6.768;2023-04-27T07:07:16;101767.88;;;7.75;63.12
4972;BME280;2501;51.214;6.768;2023-04-27T07:09:45;101767.72;;;7.96;62.50
4972;BME280;2501;51.214;6.768;2023-04-27T07:12:16;101762.94;;;7.84;61.26
4972;BME280;2501;51.214;6.768;2023-04-27T07:14:45;101762.78;;;8.05;61.73
4972;BME280;2501;51.214;6.768;2023-04-27T07:17:15;101760.22;;;8.07;59.87
4972;BME280;2501;51.214;6.768;2023-04-27T07:19:43;101766.91;;;7.98;59.94
4972;BME280;2501;51.214;6.768;2023-04-27T07:22:12;101757.03;;;8.17;59.25
4972;BME280;2501;51.214;6.768;2023-04-27T07:24:40;101752.00;;;8.23;58.86
4972;BME280;2501;51.214;6.768;2023-04-27T07:27:09;101755.31;;;8.17;59.13
4972;BME280;2501;51.214;6.768;2023-04-27T07:29:40;101757.50;;;8.59;57.61
4972;BME280;2501;51.214;6.768;2023-04-27T07:32:09;101752.25;;;8.30;57.85
4972;BME280;2501;51.214;6.768;2023-04-27T07:34:37;101752.16;;;8.27;57.38
4972;BME280;2501;51.214;6.768;2023-04-27T07:37:06;101759.13;;;8.27;56.88
4972;BME280;2501;51.214;6.768;2023-04-27T07:39:34;101761.19;;;8.37;56.29
4972;BME280;2501;51.214;6.768;2023-04-27T07:42:03;101754.16;;;8.63;56.19
4972;BME280;2501;51.214;6.768;2023-04-27T07:44:31;101767.13;;;8.60;54.47
4972;BME280;2501;51.214;6.768;2023-04-27T07:47:03;101755.44;;;8.49;55.24
4972;BME280;2501;51.214;6.768;2023-04-27T07:49:32;101760.94;;;8.86;54.49
4972;BME280;2501;51.214;6.768;2023-04-27T07:52:00;101760.03;;;8.86;54.48
4972;BME280;2501;51.214;6.768;2023-04-27T07:54:29;101758.69;;;8.98;54.51
4972;BME280;2501;51.214;6.768;2023-04-27T07:56:57;101754.16;;;8.93;55.02
4972;BME280;2501;51.214;6.768;2023-04-27T07:59:27;101753.50;;;9.00;54.77
4972;BME280;2501;51.214;6.768;2023-04-27T08:01:56;101755.50;;;9.10;53.83
4972;BME280;2501;51.214;6.768;2023-04-27T08:04:27;101750.75;;;8.65;52.76
4972;BME280;2501;51.214;6.768;2023-04-27T08:06:56;101753.06;;;8.86;52.69
4972;BME280;2501;51.214;6.768;2023-04-27T08:09:25;101751.34;;;8.87;54.02
4972;BME280;2501;51.214;6.768;2023-04-27T08:11:53;101742.44;;;9.10;54.15
4972;BME280;2501;51.214;6.768;2023-04-27T08:14:22;101746.34;;;9.26;53.37
4972;BME280;2501;51.214;6.768;2023-04-27T08:16:51;101744.44;;;8.89;52.98
4972;BME280;2501;51.214;6.768;2023-04-27T08:19:19;101734.06;;;9.23;52.54
4972;BME280;2501;51.214;6.768;2023-04-27T08:21:50;101729.19;;;9.37;52.49
4972;BME280;2501;51.214;6.768;2023-04-27T08:24:19;101735.69;;;9.53;52.23
4972;BME280;2501;51.214;6.768;2023-04-27T08:26:47;101735.19;;;9.33;52.19
4972;BME280;2501;51.214;6.768;2023-04-27T08:29:16;101727.41;;;9.69;51.83
4972;BME280;2501;51.214;6.768;2023-04-27T08:31:44;101727.53;;;9.07;52.27
4972;BME280;2501;51.214;6.768;2023-04-27T08:34:13;101727.13;;;9.58;51.04
4972;BME280;2501;51.214;6.768;2023-04-27T08:36:42;101712.53;;;10.05;50.61
4972;BME280;2501;51.214;6.768;2023-04-27T08:39:13;101717.28;;;10.19;50.76
4972;BME280;2501;51.214;6.768;2023-04-27T08:41:43;101719.34;;;10.33;50.36
4972;BME280;2501;51.214;6.768;2023-04-27T08:44:11;101716.13;;;10.46;49.59
4972;BME280;2501;51.214;6.768;2023-04-27T08:46:40;101716.63;;;10.69;49.84
4972;BME280;2501;51.214;6.768;2023-04-27T08:49:08;101717.19;;;10.55;49.98
4972;BME280;2501;51.214;6.768;2023-04-27T08:51:37;101718.81;;;10.92;49.09
4972;BME280;2501;51.214;6.768;2023-04-27T08:54:06;101723.38;;;11.00;48.39
4972;BME280;2501;51.214;6.768;2023-04-27T08:56:37;101717.94;;;10.90;48.77
4972;BME280;2501;51.214;6.768;2023-04-27T08:59:13;101716.66;;;10.30;49.32
4972;BME280;2501;51.214;6.768;2023-04-27T09:01:43;101716.19;;;10.92;48.10
4972;BME280;2501;51.214;6.768;2023-04-27T09:04:13;101715.88;;;10.76;46.56
4972;BME280;2501;51.214;6.768;2023-04-27T09:06:42;101710.91;;;10.89;45.66
4972;BME280;2501;51.214;6.768;2023-04-27T09:09:20;101712.13;;;11.06;45.18
4972;BME280;2501;51.214;6.768;2023-04-27T09:11:52;101704.94;;;10.54;46.25
4972;BME280;2501;51.214;6.768;2023-04-27T09:14:23;101704.72;;;10.07;46.66
4972;BME280;2501;51.214;6.768;2023-04-27T09:16:55;101703.63;;;11.21;45.16
4972;BME280;2501;51.214;6.768;2023-04-27T09:19:24;101702.50;;;11.06;45.39
4972;BME280;2501;51.214;6.768;2023-04-27T09:22:02;101708.47;;;10.99;45.36
4972;BME280;2501;51.214;6.768;2023-04-27T09:24:31;101702.56;;;10.66;45.57
4972;BME280;2501;51.214;6.768;2023-04-27T09:27:03;101702.00;;;10.82;45.90
4972;BME280;2501;51.214;6.768;2023-04-27T09:29:32;101701.69;;;10.65;44.67
4972;BME280;2501;51.214;6.768;2023-04-27T09:32:00;101696.28;;;11.51;43.04
4972;BME280;2501;51.214;6.768;2023-04-27T09:34:38;101702.75;;;10.76;43.98
4972;BME280;2501;51.214;6.768;2023-04-27T09:37:08;101693.34;;;10.86;44.40
4972;BME280;2501;51.214;6.768;2023-04-27T09:39:38;101691.75;;;10.94;43.38
4972;BME280;2501;51.214;6.768;2023-04-27T09:42:11;101697.25;;;11.06;43.91
4972;BME280;2501;51.214;6.768;2023-04-27T09:44:40;101694.59;;;11.53;42.93
4972;BME280;2501;51.214;6.768;2023-04-27T09:47:09;101690.34;;;11.63;40.92
4972;BME280;2501;51.214;6.768;2023-04-27T09:49:38;101696.66;;;11.21;41.55
4972;BME280;2501;51.214;6.768;2023-04-27T09:52:06;101692.19;;;11.68;40.48
4972;BME280;2501;51.214;6.768;2023-04-27T09:54:35;101686.66;;;11.50;42.01
4972;BME280;2501;51.214;6.768;2023-04-27T09:57:16;101688.09;;;11.82;41.63
4972;BME280;2501;51.214;6.768;2023-04-27T09:59:56;101680.78;;;11.66;42.82
4972;BME280;2501;51.214;6.768;2023-04-27T10:02:40;101677.06;;;11.54;41.83
4972;BME280;2501;51.214;6.768;2023-04-27T10:05:26;101673.25;;;11.86;41.16
4972;BME280;2501;51.214;6.768;2023-04-27T10:07:57;101662.66;;;12.43;40.10
4972;BME280;2501;51.214;6.768;2023-04-27T10:10:26;101664.88;;;12.81;40.48
4972;BME280;2501;51.214;6.768;2023-04-27T10:13:00;101658.72;;;11.55;41.47
4972;BME280;2501;51.214;6.768;2023-04-27T10:15:29;101656.16;;;11.61;40.83
4972;BME280;2501;51.214;6.768;2023-04-27T10:18:03;101659.69;;;11.63;41.31
4972;BME280;2501;51.214;6.768;2023-04-27T10:20:33;101649.75;;;11.98;41.46
4972;BME280;2501;51.214;6.768;2023-04-27T10:23:02;101645.31;;;12.59;40.92
4972;BME280;2501;51.214;6.768;2023-04-27T10:25:36;101644.75;;;12.87;40.28
4972;BME280;2501;51.214;6.768;2023-04-27T10:28:14;101647.53;;;12.26;41.28
4972;BME280;2501;51.214;6.768;2023-04-27T10:30:45;101644.91;;;12.27;42.05
4972;BME280;2501;51.214;6.768;2023-04-27T10:33:18;101636.25;;;12.36;41.30
4972;BME280;2501;51.214;6.768;2023-04-27T10:35:57;101641.19;;;12.13;40.98
4972;BME280;2501;51.214;6.768;2023-04-27T10:38:29;101636.28;;;12.37;42.01
4972;BME280;2501;51.214;6.768;2023-04-27T10:40:59;101636.19;;;13.08;40.22
4972;BME280;2501;51.214;6.768;2023-04-27T10:43:33;101631.66;;;12.19;41.63
4972;BME280;2501;51.214;6.768;2023-04-27T10:46:06;101622.22;;;13.14;40.21
4972;BME280;2501;51.214;6.768;2023-04-27T10:48:37;101627.75;;;12.58;40.82
4972;BME280;2501;51.214;6.768;2023-04-27T10:51:06;101622.31;;;11.79;42.21
4972;BME280;2501;51.214;6.768;2023-04-27T10:53:35;101625.50;;;12.92;40.27
4972;BME280;2501;51.214;6.768;2023-04-27T10:56:04;101622.72;;;12.05;41.58
4972;BME280;2501;51.214;6.768;2023-04-27T10:58:36;101620.50;;;13.19;40.60
4972;BME280;2501;51.214;6.768;2023-04-27T11:01:05;101621.69;;;11.96;41.21
4972;BME280;2501;51.214;6.768;2023-04-27T11:03:33;101615.91;;;13.01;40.48
4972;BME280;2501;51.214;6.768;2023-04-27T11:06:04;101617.03;;;13.23;40.11
4972;BME280;2501;51.214;6.768;2023-04-27T11:08:42;101635.09;;;12.86;39.89
4972;BME280;2501;51.214;6.768;2023-04-27T11:11:13;101621.84;;;12.77;40.16
4972;BME280;2501;51.214;6.768;2023-04-27T11:13:47;101621.03;;;12.86;40.54
4972;BME280;2501;51.214;6.768;2023-04-27T11:16:17;101615.50;;;13.51;38.92
4972;BME280;2501;51.214;6.768;2023-04-27T11:18:46;101605.13;;;13.72;38.52
4972;BME280;2501;51.214;6.768;2023-04-27T11:21:16;101613.28;;;13.01;39.45
4972;BME280;2501;51.214;6.768;2023-04-27T11:23:46;101615.88;;;12.95;39.94
4972;BME280;2501;51.214;6.768;2023-04-27T11:26:16;101609.34;;;12.58;39.68
4972;BME280;2501;51.214;6.768;2023-04-27T11:28:58;101612.91;;;12.62;39.38
4972;BME280;2501;51.214;6.768;2023-04-27T11:31:38;101609.19;;;12.44;39.18
4972;BME280;2501;51.214;6.768;2023-04-27T11:34:08;101607.94;;;12.92;39.21
4972;BME280;2501;51.214;6.768;2023-04-27T11:36:37;101604.91;;;13.42;37.85
4972;BME280;2501;51.214;6.768;2023-04-27T11:39:05;101604.91;;;12.55;39.38
4972;BME280;2501;51.214;6.768;2023-04-27T11:41:34;101596.88;;;13.27;38.65
4972;BME280;2501;51.214;6.768;2023-04-27T11:44:08;101602.28;;;13.43;38.65
4972;BME280;2501;51.214;6.768;2023-04-27T11:46:38;101583.88;;;13.52;38.34
4972;BME280;2501;51.214;6.768;2023-04-27T11:49:06;101571.59;;;13.51;37.86
4972;BME280;2501;51.214;6.768;2023-04-27T11:51:35;101575.94;;;13.43;38.56
4972;BME280;2501;51.214;6.768;2023-04-27T11:54:05;101574.66;;;13.02;39.10
4972;BME280;2501;51.214;6.768;2023-04-27T11:56:34;101573.00;;;13.11;39.12
4972;BME280;2501;51.214;6.768;2023-04-27T11:59:04;101575.81;;;12.42;39.89
4972;BME280;2501;51.214;6.768;2023-04-27T12:01:35;101571.84;;;12.82;39.80
4972;BME280;2501;51.214;6.768;2023-04-27T12:04:03;101567.41;;;13.82;38.69
4972;BME280;2501;51.214;6.768;2023-04-27T12:06:32;101568.19;;;13.66;39.10
4972;BME280;2501;51.214;6.768;2023-04-27T12:09:02;101565.34;;;13.37;38.72
4972;BME280;2501;51.214;6.768;2023-04-27T12:11:31;101560.72;;;13.10;38.11
4972;BME280;2501;51.214;6.768;2023-04-27T12:14:01;101554.16;;;13.73;37.80
4972;BME280;2501;51.214;6.768;2023-04-27T12:16:29;101555.09;;;13.81;37.78
4972;BME280;2501;51.214;6.768;2023-04-27T12:19:01;101548.38;;;13.05;38.48
4972;BME280;2501;51.214;6.768;2023-04-27T12:21:29;101549.50;;;13.34;38.17
4972;BME280;2501;51.214;6.768;2023-04-27T12:23:59;101547.72;;;13.27;38.12
4972;BME280;2501;51.214;6.768;2023-04-27T12:26:27;101550.34;;;13.26;38.19
4972;BME280;2501;51.214;6.768;2023-04-27T12:28:56;101547.50;;;13.06;38.23
4972;BME280;2501;51.214;6.768;2023-04-27T12:31:24;101543.75;;;12.78;38.87
4972;BME280;2501;51.214;6.768;2023-04-27T12:33:53;101544.66;;;14.07;36.95
4972;BME280;2501;51.214;6.768;2023-04-27T12:36:24;101544.69;;;14.12;36.87
4972;BME280;2501;51.214;6.768;2023-04-27T12:38:56;101547.38;;;14.28;36.63
4972;BME280;2501;51.214;6.768;2023-04-27T12:41:28;101535.81;;;13.94;37.15
4972;BME280;2501;51.214;6.768;2023-04-27T12:43:57;101533.91;;;13.63;37.31
4972;BME280;2501;51.214;6.768;2023-04-27T12:46:25;101539.16;;;13.62;37.63
4972;BME280;2501;51.214;6.768;2023-04-27T12:48:54;101532.16;;;13.71;38.00
4972;BME280;2501;51.214;6.768;2023-04-27T12:51:26;101535.72;;;13.78;37.63
4972;BME280;2501;51.214;6.768;2023-04-27T12:53:55;101536.63;;;13.86;37.76
4972;BME280;2501;51.214;6.768;2023-04-27T12:56:23;101535.94;;;14.19;37.45
4972;BME280;2501;51.214;6.768;2023-04-27T12:58:52;101537.72;;;14.38;36.54
4972;BME280;2501;51.214;6.768;2023-04-27T13:01:20;101529.00;;;14.56;35.67
4972;BME280;2501;51.214;6.768;2023-04-27T13:03:50;101532.34;;;14.08;36.32
4972;BME280;2501;51.214;6.768;2023-04-27T13:06:19;101533.09;;;13.79;36.61
4972;BME280;2501;51.214;6.768;2023-04-27T13:08:51;101537.53;;;13.83;36.72
4972;BME280;2501;51.214;6.768;2023-04-27T13:11:19;101533.31;;;14.28;35.84
4972;BME280;2501;51.214;6.768;2023-04-27T13:13:48;101515.78;;;14.44;35.36
4972;BME280;2501;51.214;6.768;2023-04-27T13:16:16;101517.59;;;15.57;34.50
4972;BME280;2501;51.214;6.768;2023-04-27T13:18:46;101514.06;;;15.08;34.26
4972;BME280;2501;51.214;6.768;2023-04-27T13:21:16;101522.88;;;15.39;34.18
4972;BME280;2501;51.214;6.768;2023-04-27T13:23:45;101523.75;;;15.24;34.03
4972;BME280;2501;51.214;6.768;2023-04-27T13:26:16;101514.94;;;15.36;33.79
4972;BME280;2501;51.214;6.768;2023-04-27T13:28:45;101521.06;;;15.59;33.82
4972;BME280;2501;51.214;6.768;2023-04-27T13:31:14;101503.03;;;16.51;33.31